Time;durP1;ratioP1;P1;durP2;ratioP2;P2;SDS_P1;SDS_P2;PMS_P1;PMS_P2;Temp;Humidity;BMP_temperature;BMP_pressure;BME280_temperature;BME280_humidity;BME280_pressure;Samples;Min_cycle;Max_cycle;Signal;HPM_P1;HPM_P2
2024/01/04 00:00:23;;;;;;;7.05;2.00;;;;;;;-146.25;100.00;70816.00;5073979;28;20518;-58
2024/01/04 00:02:49;;;;;;;8.63;2.17;;;;;;;-146.25;100.00;70816.00;5073855;28;20048;-57
2024/01/04 00:05:15;;;;;;;10.70;1.85;;;;;;;-146.25;100.00;70816.00;5073986;28;20036;-58
2024/01/04 00:07:41;;;;;;;8.85;2.08;;;;;;;-146.25;100.00;70816.00;5062718;28;20577;-57
2024/01/04 00:10:07;;;;;;;4.72;1.52;;;;;;;-146.25;100.00;70816.00;5074847;28;20032;-58
2024/01/04 00:12:32;;;;;;;4.97;1.75;;;;;;;-146.25;100.00;70816.00;5071496;28;20052;-58
2024/01/04 00:14:59;;;;;;;6.78;1.45;;;;;;;-146.25;100.00;70816.00;5074696;28;20169;-58
2024/01/04 00:17:25;;;;;;;3.35;1.40;;;;;;;-146.25;100.00;70816.00;5075426;28;20126;-58
2024/01/04 00:19:50;;;;;;;4.90;1.45;;;;;;;-146.25;100.00;70816.00;5074727;28;20147;-58
2024/01/04 00:22:15;;;;;;;3.42;1.42;;;;;;;-146.25;100.00;70816.00;5070880;28;20055;-58
2024/01/04 00:24:41;;;;;;;3.80;1.35;;;;;;;-146.25;100.00;70816.00;5074961;28;20058;-59
2024/01/04 00:27:06;;;;;;;7.57;1.75;;;;;;;-146.25;100.00;70816.00;5072459;28;20475;-57
2024/01/04 00:29:31;;;;;;;4.60;1.83;;;;;;;-146.25;100.00;70816.00;5074368;28;20032;-57
2024/01/04 00:31:56;;;;;;;7.90;2.05;;;;;;;-146.25;100.00;70816.00;5075020;28;20033;-57
2024/01/04 00:34:22;;;;;;;10.32;2.15;;;;;;;-146.25;100.00;70816.00;5062162;28;20408;-57
2024/01/04 00:36:48;;;;;;;10.80;2.40;;;;;;;-146.25;100.00;70816.00;5073763;28;20157;-58
2024/01/04 00:39:13;;;;;;;12.18;1.95;;;;;;;-146.25;100.00;70816.00;5072686;28;20083;-58
2024/01/04 00:41:38;;;;;;;11.80;2.30;;;;;;;-146.25;100.00;70816.00;5076943;28;20034;-57
2024/01/04 00:44:04;;;;;;;9.95;2.60;;;;;;;-146.25;100.00;70816.00;5075854;28;20616;-57
2024/01/04 00:46:29;;;;;;;19.92;6.07;;;;;;;-146.25;100.00;70816.00;5077148;28;20090;-57
2024/01/04 00:48:54;;;;;;;20.40;5.90;;;;;;;-146.25;100.00;70816.00;5078713;28;20032;-58
2024/01/04 00:51:19;;;;;;;43.63;26.33;;;;;;;-146.25;100.00;70816.00;5075297;28;20475;-58
2024/01/04 00:53:45;;;;;;;23.33;8.40;;;;;;;-146.25;100.00;70816.00;5079562;28;20179;-58
2024/01/04 00:56:10;;;;;;;17.50;4.85;;;;;;;-146.25;100.00;70816.00;5078954;28;20400;-56
2024/01/04 00:58:35;;;;;;;15.45;2.78;;;;;;;-146.25;100.00;70816.00;5076979;28;20156;-58
2024/01/04 01:01:03;;;;;;;11.68;3.08;;;;;;;-146.25;100.00;70816.00;5074620;28;20080;-57
2024/01/04 01:03:29;;;;;;;8.52;2.30;;;;;;;-146.25;100.00;70816.00;5077016;28;20060;-57
2024/01/04 01:05:54;;;;;;;13.40;2.40;;;;;;;-146.25;100.00;70816.00;5075145;28;20753;-58
2024/01/04 01:08:19;;;;;;;20.40;7.22;;;;;;;-146.25;100.00;70816.00;5076764;28;20036;-58
2024/01/04 01:10:45;;;;;;;13.63;2.72;;;;;;;-146.25;100.00;70816.00;5077325;28;20046;-58
2024/01/04 01:13:10;;;;;;;48.25;26.42;;;;;;;-146.25;100.00;70816.00;5076489;28;20036;-58
2024/01/04 01:15:36;;;;;;;12.27;2.50;;;;;;;-146.25;100.00;70816.00;5075195;28;20562;-58
2024/01/04 01:18:01;;;;;;;11.63;2.70;;;;;;;-146.25;100.00;70816.00;5075500;28;20033;-58
2024/01/04 01:20:26;;;;;;;21.10;7.30;;;;;;;-146.25;100.00;70816.00;5077684;28;20487;-58
2024/01/04 01:22:52;;;;;;;21.02;6.43;;;;;;;-146.25;100.00;70816.00;5078157;28;20055;-57
2024/01/04 01:25:17;;;;;;;29.20;12.63;;;;;;;-146.25;100.00;70816.00;5076314;28;20040;-57
2024/01/04 01:27:42;;;;;;;26.05;10.43;;;;;;;-146.25;100.00;70816.00;5078223;28;20043;-57
2024/01/04 01:30:08;;;;;;;16.55;3.47;;;;;;;-146.25;100.00;70816.00;5066573;28;20846;-58
2024/01/04 01:32:34;;;;;;;26.85;9.38;;;;;;;-146.25;100.00;70816.00;5076574;28;20032;-57
2024/01/04 01:34:59;;;;;;;21.63;6.13;;;;;;;-146.25;100.00;70816.00;5078019;28;20042;-57
2024/01/04 01:37:24;;;;;;;25.35;8.32;;;;;;;-146.25;100.00;70816.00;5077560;28;20131;-57
2024/01/04 01:39:49;;;;;;;23.27;7.18;;;;;;;-146.25;100.00;70816.00;5076399;28;20041;-58
2024/01/04 01:42:16;;;;;;;27.45;8.18;;;;;;;-146.25;100.00;70816.00;5076509;28;20119;-58
2024/01/04 01:44:41;;;;;;;22.75;8.05;;;;;;;-146.25;100.00;70816.00;5076953;28;20036;-57
2024/01/04 01:47:07;;;;;;;24.02;7.60;;;;;;;-146.25;100.00;70816.00;5074866;28;20051;-57
2024/01/04 01:49:32;;;;;;;17.52;5.38;;;;;;;-146.25;100.00;70816.00;5075814;28;20036;-59
2024/01/04 01:51:58;;;;;;;25.77;9.98;;;;;;;-146.25;100.00;70816.00;5075107;28;20031;-57
2024/01/04 01:54:24;;;;;;;25.13;8.30;;;;;;;-146.25;100.00;70816.00;5074998;28;20098;-58
2024/01/04 01:56:50;;;;;;;21.70;4.65;;;;;;;-146.25;100.00;70816.00;5074127;28;20040;-58
2024/01/04 01:59:16;;;;;;;21.50;5.03;;;;;;;-146.25;100.00;70816.00;5076715;28;20037;-58
2024/01/04 02:01:42;;;;;;;21.05;5.97;;;;;;;-146.25;100.00;70816.00;5075165;28;20447;-58
2024/01/04 02:04:07;;;;;;;19.15;3.13;;;;;;;-146.25;100.00;70816.00;5074765;28;20020;-58
2024/01/04 02:06:33;;;;;;;18.30;4.25;;;;;;;-146.25;100.00;70816.00;5076662;28;20098;-57
2024/01/04 02:08:58;;;;;;;24.10;7.25;;;;;;;-146.25;100.00;70816.00;5076604;28;20020;-58
2024/01/04 02:11:23;;;;;;;27.73;9.32;;;;;;;-146.25;100.00;70816.00;5076468;28;20048;-58
2024/01/04 02:13:49;;;;;;;19.95;5.10;;;;;;;-146.25;100.00;70816.00;5077037;28;20047;-58
2024/01/04 02:16:14;;;;;;;34.78;15.57;;;;;;;-146.25;100.00;70816.00;5074756;28;20047;-59
2024/01/04 02:18:39;;;;;;;18.95;4.10;;;;;;;-146.25;100.00;70816.00;5074316;28;20102;-58
2024/01/04 02:21:05;;;;;;;19.85;4.65;;;;;;;-146.25;100.00;70816.00;5072700;28;20041;-58
2024/01/04 02:23:31;;;;;;;16.83;3.42;;;;;;;-146.25;100.00;70816.00;5074579;28;20103;-58
2024/01/04 02:25:56;;;;;;;20.85;4.53;;;;;;;-146.25;100.00;70816.00;5075323;28;20567;-57
2024/01/04 02:28:21;;;;;;;26.33;8.95;;;;;;;-146.25;100.00;70816.00;5074379;28;20456;-57
2024/01/04 02:30:47;;;;;;;17.35;4.13;;;;;;;-146.25;100.00;70816.00;5073861;28;20047;-58
2024/01/04 02:33:12;;;;;;;16.25;4.03;;;;;;;-146.25;100.00;70816.00;5075152;28;20528;-58
2024/01/04 02:35:37;;;;;;;18.13;3.88;;;;;;;-146.25;100.00;70816.00;5074472;28;20040;-58
2024/01/04 02:38:03;;;;;;;17.70;3.83;;;;;;;-146.25;100.00;70816.00;5075039;28;20040;-58
2024/01/04 02:40:29;;;;;;;21.58;5.05;;;;;;;-146.25;100.00;70816.00;5074690;28;20032;-57
2024/01/04 02:42:55;;;;;;;17.15;3.63;;;;;;;-146.25;100.00;70816.00;5073847;28;20433;-57
2024/01/04 02:45:20;;;;;;;20.92;4.32;;;;;;;-146.25;100.00;70816.00;5073042;28;20045;-59
2024/01/04 02:47:45;;;;;;;23.40;4.93;;;;;;;-146.25;100.00;70816.00;5074441;28;20119;-58
2024/01/04 02:50:11;;;;;;;18.27;3.60;;;;;;;-146.25;100.00;70816.00;5075746;28;20936;-58
2024/01/04 02:52:37;;;;;;;18.02;3.40;;;;;;;-146.25;100.00;70816.00;5076130;28;20483;-57
2024/01/04 02:55:03;;;;;;;21.42;3.92;;;;;;;-146.25;100.00;70816.00;5074474;28;20035;-57
2024/01/04 02:57:28;;;;;;;23.13;5.78;;;;;;;-146.25;100.00;70816.00;5075746;28;20119;-58
2024/01/04 02:59:53;;;;;;;18.00;3.88;;;;;;;-146.25;100.00;70816.00;5074354;28;20135;-58
2024/01/04 03:02:18;;;;;;;17.15;3.53;;;;;;;-146.25;100.00;70816.00;5073702;28;20111;-57
2024/01/04 03:04:44;;;;;;;16.23;3.30;;;;;;;-146.25;100.00;70816.00;5073675;28;20044;-57
2024/01/04 03:07:10;;;;;;;19.15;3.90;;;;;;;-146.25;100.00;70816.00;5074202;28;20036;-56
2024/01/04 03:09:35;;;;;;;17.80;3.95;;;;;;;-146.25;100.00;70816.00;5074751;28;20035;-58
2024/01/04 03:12:01;;;;;;;17.60;4.05;;;;;;;-146.25;100.00;70816.00;5077366;28;20040;-57
2024/01/04 03:14:26;;;;;;;16.08;3.45;;;;;;;-146.25;100.00;70816.00;5072577;28;20557;-58
2024/01/04 03:16:52;;;;;;;18.30;3.63;;;;;;;-146.25;100.00;70816.00;5074077;28;20044;-58
2024/01/04 03:19:17;;;;;;;12.48;3.15;;;;;;;-146.25;100.00;70816.00;5072526;28;20577;-58
2024/01/04 03:21:42;;;;;;;14.93;3.50;;;;;;;-146.25;100.00;70816.00;5073760;28;20125;-58
2024/01/04 03:24:08;;;;;;;12.35;3.20;;;;;;;-146.25;100.00;70816.00;5072955;28;20115;-58
2024/01/04 03:26:33;;;;;;;22.75;6.28;;;;;;;-146.25;100.00;70816.00;5076678;28;20429;-58
2024/01/04 03:28:58;;;;;;;20.05;5.03;;;;;;;-146.25;100.00;70816.00;5072228;28;20364;-58
2024/01/04 03:31:24;;;;;;;16.02;3.08;;;;;;;-146.25;100.00;70816.00;5073675;28;20060;-58
2024/01/04 03:33:49;;;;;;;14.35;3.53;;;;;;;-146.25;100.00;70816.00;5071969;28;20091;-58
2024/01/04 03:36:15;;;;;;;15.13;3.50;;;;;;;-146.25;100.00;70816.00;5072267;28;20036;-58
2024/01/04 03:38:40;;;;;;;19.48;4.50;;;;;;;-146.25;100.00;70816.00;5072510;28;20411;-56
2024/01/04 03:41:06;;;;;;;17.90;4.43;;;;;;;-146.25;100.00;70816.00;5075453;28;20044;-58
2024/01/04 03:43:32;;;;;;;18.33;4.13;;;;;;;-146.25;100.00;70816.00;5071770;28;20730;-58
2024/01/04 03:45:57;;;;;;;20.42;4.35;;;;;;;-146.25;100.00;70816.00;5063858;28;20059;-58
2024/01/04 03:48:23;;;;;;;16.02;3.30;;;;;;;-146.25;100.00;70816.00;5073602;28;20036;-58
2024/01/04 03:50:48;;;;;;;17.50;4.43;;;;;;;-146.25;100.00;70816.00;5074348;28;20032;-57
2024/01/04 03:53:13;;;;;;;16.17;4.10;;;;;;;-146.25;100.00;70816.00;5073583;28;20042;-57
2024/01/04 03:55:39;;;;;;;19.17;3.53;;;;;;;-146.25;100.00;70816.00;5076571;28;20078;-58
2024/01/04 03:58:04;;;;;;;18.38;4.50;;;;;;;-146.25;100.00;70816.00;5072175;28;20081;-59
2024/01/04 04:00:29;;;;;;;18.83;4.00;;;;;;;-146.25;100.00;70816.00;5072326;28;20063;-57
2024/01/04 04:02:54;;;;;;;14.13;3.88;;;;;;;-146.25;100.00;70816.00;5073833;28;20377;-57
2024/01/04 04:05:20;;;;;;;16.63;3.90;;;;;;;-146.25;100.00;70816.00;5073669;28;20035;-58
2024/01/04 04:07:45;;;;;;;17.02;3.70;;;;;;;-146.25;100.00;70816.00;5072865;28;20036;-58
2024/01/04 04:10:10;;;;;;;16.08;3.67;;;;;;;-146.25;100.00;70816.00;5071566;28;20439;-58
2024/01/04 04:12:36;;;;;;;14.15;3.67;;;;;;;-146.25;100.00;70816.00;5072515;28;20394;-58
2024/01/04 04:15:01;;;;;;;16.55;4.07;;;;;;;-146.25;100.00;70816.00;5069945;28;20056;-57
2024/01/04 04:17:26;;;;;;;15.90;3.78;;;;;;;-146.25;100.00;70816.00;5080950;28;20032;-58
2024/01/04 04:19:52;;;;;;;18.17;4.50;;;;;;;-146.25;100.00;70816.00;5077166;28;20111;-57
2024/01/04 04:22:17;;;;;;;18.55;4.45;;;;;;;-146.25;100.00;70816.00;5079395;28;20044;-59
2024/01/04 04:24:43;;;;;;;18.10;4.18;;;;;;;-146.25;100.00;70816.00;5081488;28;20475;-58
2024/01/04 04:27:08;;;;;;;15.43;3.67;;;;;;;-146.25;100.00;70816.00;5081162;28;20037;-58
2024/01/04 04:29:33;;;;;;;18.48;4.38;;;;;;;-146.25;100.00;70816.00;5069920;28;20127;-58
2024/01/04 04:31:58;;;;;;;17.23;4.38;;;;;;;-146.25;100.00;70816.00;5082171;28;20032;-58
2024/01/04 04:34:24;;;;;;;21.33;4.60;;;;;;;-146.25;100.00;70816.00;5079848;28;20105;-57
2024/01/04 04:36:49;;;;;;;20.38;4.90;;;;;;;-146.25;100.00;70816.00;5079832;28;20062;-58
2024/01/04 04:39:14;;;;;;;18.63;4.90;;;;;;;-146.25;100.00;70816.00;5079046;28;20127;-57
2024/01/04 04:41:40;;;;;;;23.40;5.38;;;;;;;-146.25;100.00;70816.00;5080818;28;20041;-57
2024/01/04 04:44:05;;;;;;;15.98;4.47;;;;;;;-146.25;100.00;70816.00;5079395;28;20051;-58
2024/01/04 04:46:31;;;;;;;18.60;4.55;;;;;;;-146.25;100.00;70816.00;5079508;28;20093;-57
2024/01/04 04:48:57;;;;;;;16.08;4.18;;;;;;;-146.25;100.00;70816.00;5079063;28;20086;-58
2024/01/04 04:51:23;;;;;;;16.33;4.30;;;;;;;-146.25;100.00;70816.00;5078945;28;20039;-57
2024/01/04 04:53:48;;;;;;;16.33;3.97;;;;;;;-146.25;100.00;70816.00;5080926;28;20036;-58
2024/01/04 04:56:14;;;;;;;15.25;3.65;;;;;;;-146.25;100.00;70816.00;5079912;28;20050;-58
2024/01/04 04:58:39;;;;;;;14.05;3.00;;;;;;;-146.25;100.00;70816.00;5078217;28;20040;-58
2024/01/04 05:01:04;;;;;;;12.52;2.90;;;;;;;-146.25;100.00;70816.00;5078393;28;20458;-58
2024/01/04 05:03:30;;;;;;;12.02;3.05;;;;;;;-146.25;100.00;70816.00;5082280;28;20032;-58
2024/01/04 05:05:55;;;;;;;13.30;2.97;;;;;;;-146.25;100.00;70816.00;5078319;28;20044;-58
2024/01/04 05:08:20;;;;;;;10.85;2.65;;;;;;;-146.25;100.00;70816.00;5079775;28;20441;-58
2024/01/04 05:10:45;;;;;;;15.75;3.20;;;;;;;-146.25;100.00;70816.00;5078188;28;20038;-57
2024/01/04 05:13:11;;;;;;;15.13;2.88;;;;;;;-146.25;100.00;70816.00;5069274;28;20035;-58
2024/01/04 05:15:37;;;;;;;9.30;2.63;;;;;;;-146.25;100.00;70816.00;5080501;28;20100;-57
2024/01/04 05:18:02;;;;;;;11.88;2.50;;;;;;;-146.25;100.00;70816.00;5081757;28;20387;-58
2024/01/04 05:20:28;;;;;;;10.45;2.75;;;;;;;-146.25;100.00;70816.00;5078953;28;20036;-58
2024/01/04 05:22:53;;;;;;;11.90;2.65;;;;;;;-146.25;100.00;70816.00;5080569;28;20353;-59
2024/01/04 05:25:18;;;;;;;10.65;2.60;;;;;;;-146.25;100.00;70816.00;5078680;28;20395;-57
2024/01/04 05:27:43;;;;;;;15.35;3.80;;;;;;;-146.25;100.00;70816.00;5074112;28;20044;-57
2024/01/04 05:30:09;;;;;;;12.88;3.15;;;;;;;-146.25;100.00;70816.00;5077210;28;20075;-57
2024/01/04 05:32:35;;;;;;;16.02;3.40;;;;;;;-146.25;100.00;70816.00;5075902;28;20121;-58
2024/01/04 05:35:01;;;;;;;13.85;3.40;;;;;;;-146.25;100.00;70816.00;5065356;28;20064;-58
2024/01/04 05:37:26;;;;;;;15.20;3.40;;;;;;;-146.25;100.00;70816.00;5074712;28;20049;-57
2024/01/04 05:39:51;;;;;;;15.43;3.20;;;;;;;-146.25;100.00;70816.00;5076301;28;20543;-58
2024/01/04 05:42:17;;;;;;;14.50;3.13;;;;;;;-146.25;100.00;70816.00;5078149;28;20043;-58
2024/01/04 05:44:42;;;;;;;13.00;3.22;;;;;;;-146.25;100.00;70816.00;5075955;28;20035;-58
2024/01/04 05:47:07;;;;;;;10.85;2.53;;;;;;;-146.25;100.00;70816.00;5075270;28;20040;-58
2024/01/04 05:49:32;;;;;;;11.90;2.90;;;;;;;-146.25;100.00;70816.00;5077191;28;20561;-58
2024/01/04 05:51:58;;;;;;;13.88;3.60;;;;;;;-146.25;100.00;70816.00;5077122;28;20032;-57
2024/01/04 05:54:23;;;;;;;14.18;3.40;;;;;;;-146.25;100.00;70816.00;5075149;28;20452;-58
2024/01/04 05:56:49;;;;;;;12.88;3.78;;;;;;;-146.25;100.00;70816.00;5076712;28;20126;-58
2024/01/04 05:59:14;;;;;;;20.17;4.47;;;;;;;-146.25;100.00;70816.00;5076832;28;20468;-58
2024/01/04 06:01:40;;;;;;;15.73;3.72;;;;;;;-146.25;100.00;70816.00;5076674;28;20035;-58
2024/01/04 06:04:05;;;;;;;17.00;4.18;;;;;;;-146.25;100.00;70816.00;5077739;28;20503;-59
2024/01/04 06:06:31;;;;;;;18.40;4.60;;;;;;;-146.25;100.00;70816.00;5075204;28;20040;-59
2024/01/04 06:08:56;;;;;;;17.20;4.47;;;;;;;-146.25;100.00;70816.00;5075739;28;20036;-59
2024/01/04 06:11:22;;;;;;;17.95;4.82;;;;;;;-146.25;100.00;70816.00;5075984;28;20055;-59
2024/01/04 06:13:47;;;;;;;19.23;4.78;;;;;;;-146.25;100.00;70816.00;5075518;28;20344;-58
2024/01/04 06:16:12;;;;;;;20.45;4.88;;;;;;;-146.25;100.00;70816.00;5073144;28;20167;-58
2024/01/04 06:18:38;;;;;;;18.67;4.57;;;;;;;-146.25;100.00;70816.00;5075365;28;20032;-58
2024/01/04 06:21:05;;;;;;;17.08;4.72;;;;;;;-146.25;100.00;70816.00;5075663;28;20040;-57
2024/01/04 06:23:31;;;;;;;20.17;4.38;;;;;;;-146.25;100.00;70816.00;5075635;28;20120;-58
2024/01/04 06:25:56;;;;;;;18.88;4.20;;;;;;;-146.25;100.00;70816.00;5072836;28;20166;-58
2024/01/04 06:28:22;;;;;;;16.27;3.90;;;;;;;-146.25;100.00;70816.00;5076990;28;20036;-57
2024/01/04 06:30:48;;;;;;;14.95;3.72;;;;;;;-146.25;100.00;70816.00;5073067;28;20480;-59
2024/01/04 06:33:13;;;;;;;14.45;3.55;;;;;;;-146.25;100.00;70816.00;5076049;28;20048;-58
2024/01/04 06:35:39;;;;;;;14.25;3.50;;;;;;;-146.25;100.00;70816.00;5076306;28;20028;-57
2024/01/04 06:38:07;;;;;;;11.93;3.20;;;;;;;-146.25;100.00;70816.00;5073535;28;20044;-58
2024/01/04 06:40:37;;;;;;;12.38;3.17;;;;;;;-146.25;100.00;70816.00;5080193;28;20472;-58
2024/01/04 06:43:03;;;;;;;14.40;3.30;;;;;;;-146.25;100.00;70816.00;5082714;28;20111;-58
2024/01/04 06:45:32;;;;;;;13.00;3.17;;;;;;;-146.25;100.00;70816.00;5086669;28;20032;-57
2024/01/04 06:47:57;;;;;;;13.77;3.50;;;;;;;-146.25;100.00;70816.00;5063902;28;20197;-57
2024/01/04 06:50:22;;;;;;;13.43;3.55;;;;;;;-146.25;100.00;70816.00;5071746;28;20131;-57
2024/01/04 06:52:48;;;;;;;14.95;3.30;;;;;;;-146.25;100.00;70816.00;5072593;28;20036;-58
2024/01/04 06:55:15;;;;;;;15.95;3.95;;;;;;;-146.25;100.00;70816.00;5073827;28;20394;-57
2024/01/04 06:57:41;;;;;;;14.30;3.40;;;;;;;-146.25;100.00;70816.00;5071930;28;20035;-57
2024/01/04 07:00:10;;;;;;;14.75;3.70;;;;;;;-146.25;100.00;70816.00;5072959;28;20032;-57
2024/01/04 07:02:35;;;;;;;15.38;3.50;;;;;;;-146.25;100.00;70816.00;5071504;28;20143;-58
2024/01/04 07:05:03;;;;;;;14.77;3.60;;;;;;;-146.25;100.00;70816.00;5068669;28;20033;-59
2024/01/04 07:07:30;;;;;;;17.15;3.90;;;;;;;-146.25;100.00;70816.00;5070924;28;20187;-58
2024/01/04 07:09:56;;;;;;;15.70;3.75;;;;;;;-146.25;100.00;70816.00;5070819;28;20362;-58
2024/01/04 07:12:21;;;;;;;15.30;4.00;;;;;;;-146.25;100.00;70816.00;5071162;28;20046;-58
2024/01/04 07:14:46;;;;;;;15.07;3.75;;;;;;;-146.25;100.00;70816.00;5069789;28;20499;-59
2024/01/04 07:17:13;;;;;;;12.23;3.33;;;;;;;-146.25;100.00;70816.00;5071295;28;20040;-58
2024/01/04 07:19:41;;;;;;;13.70;3.65;;;;;;;-146.25;100.00;70816.00;5069543;28;20078;-57
2024/01/04 07:22:07;;;;;;;14.40;3.92;;;;;;;-146.25;100.00;70816.00;5071187;28;20543;-58
2024/01/04 07:24:32;;;;;;;17.10;4.13;;;;;;;-146.25;100.00;70816.00;5071969;28;20124;-58
2024/01/04 07:26:57;;;;;;;16.70;4.15;;;;;;;-146.25;100.00;70816.00;5068412;28;20036;-58
2024/01/04 07:29:23;;;;;;;15.73;3.95;;;;;;;-146.25;100.00;70816.00;5081358;28;20039;-58
2024/01/04 07:31:49;;;;;;;15.10;3.90;;;;;;;-146.25;100.00;70816.00;5069640;28;20029;-58
2024/01/04 07:34:14;;;;;;;17.25;4.00;;;;;;;-146.25;100.00;70816.00;5080469;28;20504;-58
2024/01/04 07:36:39;;;;;;;11.88;3.40;;;;;;;-146.25;100.00;70816.00;5076038;28;20032;-58
2024/01/04 07:39:04;;;;;;;11.48;3.17;;;;;;;-146.25;100.00;70816.00;5081035;28;20483;-59
2024/01/04 07:41:30;;;;;;;13.93;2.88;;;;;;;-146.25;100.00;70816.00;5071012;28;20139;-58
2024/01/04 07:43:55;;;;;;;11.63;2.60;;;;;;;-146.25;100.00;70816.00;5083697;28;20052;-58
2024/01/04 07:46:21;;;;;;;10.95;2.70;;;;;;;-146.25;100.00;70816.00;5081205;28;20116;-58
2024/01/04 07:48:46;;;;;;;12.82;2.60;;;;;;;-146.25;100.00;70816.00;5065920;28;20495;-58
2024/01/04 07:51:11;;;;;;;9.68;2.45;;;;;;;-146.25;100.00;70816.00;5073354;28;20032;-58
2024/01/04 07:53:37;;;;;;;9.32;2.60;;;;;;;-146.25;100.00;70816.00;5081866;28;20043;-59
2024/01/04 07:56:02;;;;;;;11.25;2.90;;;;;;;-146.25;100.00;70816.00;5081415;28;20042;-58
2024/01/04 07:58:27;;;;;;;12.35;2.83;;;;;;;-146.25;100.00;70816.00;5070115;28;20040;-58
2024/01/04 08:00:53;;;;;;;12.23;3.38;;;;;;;-146.25;100.00;70816.00;5072475;28;20032;-57
2024/01/04 08:03:18;;;;;;;14.15;3.67;;;;;;;-146.25;100.00;70816.00;5070218;28;20051;-58
2024/01/04 08:05:43;;;;;;;17.27;4.25;;;;;;;-146.25;100.00;70816.00;5071340;28;20036;-58
2024/01/04 08:08:08;;;;;;;16.02;4.32;;;;;;;-146.25;100.00;70816.00;5070975;28;20032;-57
2024/01/04 08:10:34;;;;;;;17.17;4.90;;;;;;;-146.25;100.00;70816.00;5069292;28;20060;-57
2024/01/04 08:12:59;;;;;;;17.05;5.32;;;;;;;-146.25;100.00;70816.00;5073659;28;20068;-58
2024/01/04 08:15:24;;;;;;;18.75;5.10;;;;;;;-146.25;100.00;70816.00;5071107;28;20034;-58
2024/01/04 08:17:50;;;;;;;19.58;6.55;;;;;;;-146.25;100.00;70816.00;5071938;28;20139;-58
2024/01/04 08:20:15;;;;;;;20.38;6.28;;;;;;;-146.25;100.00;70816.00;5075170;28;20091;-57
2024/01/04 08:22:40;;;;;;;24.33;7.05;;;;;;;-146.25;100.00;70816.00;5070478;28;20070;-57
2024/01/04 08:25:06;;;;;;;24.08;7.68;;;;;;;-146.25;100.00;70816.00;5074325;28;20025;-57
2024/01/04 08:27:32;;;;;;;20.95;7.70;;;;;;;-146.25;100.00;70816.00;5070067;28;20033;-58
2024/01/04 08:29:57;;;;;;;24.70;7.97;;;;;;;-146.25;100.00;70816.00;5080186;28;20402;-58
2024/01/04 08:32:22;;;;;;;19.88;5.28;;;;;;;-146.25;100.00;70816.00;5077116;28;20028;-58
2024/01/04 08:34:48;;;;;;;20.08;4.90;;;;;;;-146.25;100.00;70816.00;5086147;28;20072;-59
2024/01/04 08:37:14;;;;;;;20.48;5.90;;;;;;;-146.25;100.00;70816.00;5077396;28;20049;-58
2024/01/04 08:39:39;;;;;;;20.67;5.70;;;;;;;-146.25;100.00;70816.00;5090847;28;20044;-59
2024/01/04 08:42:06;;;;;;;19.50;5.35;;;;;;;-146.25;100.00;70816.00;5090917;28;20032;-58
2024/01/04 08:44:31;;;;;;;21.98;5.00;;;;;;;-146.25;100.00;70816.00;5072606;28;20093;-58
2024/01/04 08:46:56;;;;;;;19.13;5.03;;;;;;;-146.25;100.00;70816.00;5074689;28;20479;-59
2024/01/04 08:49:22;;;;;;;22.15;5.50;;;;;;;-146.25;100.00;70816.00;5075894;28;20628;-59
2024/01/04 08:51:47;;;;;;;20.50;4.65;;;;;;;-146.25;100.00;70816.00;5087996;28;20544;-58
2024/01/04 08:54:12;;;;;;;19.20;5.30;;;;;;;-146.25;100.00;70816.00;5081641;28;20033;-58
2024/01/04 08:56:38;;;;;;;18.27;4.68;;;;;;;-146.25;100.00;70816.00;5073756;28;20032;-58
2024/01/04 08:59:03;;;;;;;18.00;4.70;;;;;;;-146.25;100.00;70816.00;5074939;28;20036;-58
2024/01/04 09:01:29;;;;;;;31.17;12.50;;;;;;;-146.25;100.00;70816.00;5073949;28;20043;-57
2024/01/04 09:03:56;;;;;;;18.27;4.75;;;;;;;-146.25;100.00;70816.00;5074617;28;20162;-58
2024/01/04 09:06:22;;;;;;;20.95;5.35;;;;;;;-146.25;100.00;70816.00;5075383;28;20040;-58
2024/01/04 09:08:47;;;;;;;18.30;5.78;;;;;;;-146.25;100.00;70816.00;5072710;28;20392;-58
2024/01/04 09:11:12;;;;;;;18.35;5.32;;;;;;;-146.25;100.00;70816.00;5073870;28;20028;-60
2024/01/04 09:13:38;;;;;;;19.75;4.93;;;;;;;-146.25;100.00;70816.00;5072267;28;20064;-59
2024/01/04 09:16:04;;;;;;;21.83;6.18;;;;;;;-146.25;100.00;70816.00;5074660;28;20564;-60
2024/01/04 09:18:29;;;;;;;17.75;4.85;;;;;;;-146.25;100.00;70816.00;5074452;28;20040;-59
2024/01/04 09:20:55;;;;;;;15.77;4.72;;;;;;;-146.25;100.00;70816.00;5076203;28;20040;-58
2024/01/04 09:23:20;;;;;;;14.60;3.60;;;;;;;-146.25;100.00;70816.00;5075471;28;20036;-59
2024/01/04 09:25:45;;;;;;;17.10;4.53;;;;;;;-146.25;100.00;70816.00;5076499;28;20566;-58
2024/01/04 09:28:11;;;;;;;13.00;3.50;;;;;;;-146.25;100.00;70816.00;5079957;28;20048;-58
2024/01/04 09:30:36;;;;;;;17.70;4.72;;;;;;;-146.25;100.00;70816.00;5072003;28;20037;-58
2024/01/04 09:33:02;;;;;;;18.30;4.43;;;;;;;-146.25;100.00;70816.00;5072106;28;20142;-59
2024/01/04 09:35:27;;;;;;;13.75;3.53;;;;;;;-146.25;100.00;70816.00;5071633;28;20032;-59
2024/01/04 09:37:52;;;;;;;15.00;3.42;;;;;;;-146.25;100.00;70816.00;5071719;28;20484;-59
2024/01/04 09:40:20;;;;;;;12.35;3.25;;;;;;;-146.25;100.00;70816.00;5071733;28;20500;-59
2024/01/04 09:42:47;;;;;;;14.13;3.13;;;;;;;-146.25;100.00;70816.00;5070067;28;20032;-59
2024/01/04 09:45:15;;;;;;;13.20;3.40;;;;;;;-146.25;100.00;70816.00;5069865;28;20037;-58
2024/01/04 09:47:42;;;;;;;12.38;3.17;;;;;;;-146.25;100.00;70816.00;5069838;28;20095;-59
2024/01/04 09:50:10;;;;;;;13.30;2.90;;;;;;;-146.25;100.00;70816.00;5069735;28;20029;-59
2024/01/04 09:52:38;;;;;;;10.38;2.95;;;;;;;-146.25;100.00;70816.00;5070049;28;20072;-58
2024/01/04 09:55:04;;;;;;;8.43;2.40;;;;;;;-146.25;100.00;70816.00;5069624;28;20108;-59
2024/01/04 09:57:29;;;;;;;9.32;2.25;;;;;;;-146.25;100.00;70816.00;5070863;28;20045;-58
2024/01/04 09:59:55;;;;;;;13.65;2.85;;;;;;;-146.25;100.00;70816.00;5069437;28;20040;-59
2024/01/04 10:02:21;;;;;;;14.27;3.47;;;;;;;-146.25;100.00;70816.00;5071478;28;20097;-59
2024/01/04 10:04:48;;;;;;;9.98;2.58;;;;;;;-146.25;100.00;70816.00;5071525;28;20041;-59
2024/01/04 10:07:21;;;;;;;15.52;4.05;;;;;;;-146.25;100.00;70816.00;5071049;28;20365;-59
2024/01/04 10:09:53;;;;;;;15.05;3.35;;;;;;;-146.25;100.00;70816.00;5071417;28;20555;-59
2024/01/04 10:12:18;;;;;;;13.60;3.40;;;;;;;-146.25;100.00;70816.00;5070600;28;20036;-59
2024/01/04 10:14:44;;;;;;;13.02;3.10;;;;;;;-146.25;100.00;70816.00;5071272;28;20039;-59
2024/01/04 10:17:09;;;;;;;12.38;3.13;;;;;;;-146.25;100.00;70816.00;5071359;28;20056;-59
2024/01/04 10:19:35;;;;;;;12.98;3.15;;;;;;;-146.25;100.00;70816.00;5070954;28;20041;-59
2024/01/04 10:22:02;;;;;;;12.05;2.53;;;;;;;-146.25;100.00;70816.00;5070948;28;20103;-59
2024/01/04 10:24:28;;;;;;;9.13;2.30;;;;;;;-146.25;100.00;70816.00;5070886;28;20099;-59
2024/01/04 10:26:55;;;;;;;9.57;3.47;;;;;;;-146.25;100.00;70816.00;5070674;28;20616;-59
2024/01/04 10:29:21;;;;;;;6.22;1.90;;;;;;;-146.25;100.00;70816.00;5073473;28;20138;-59
2024/01/04 10:31:46;;;;;;;9.50;2.60;;;;;;;-146.25;100.00;70816.00;5087072;28;20123;-59
2024/01/04 10:34:17;;;;;;;7.60;2.10;;;;;;;-146.25;100.00;70816.00;5088970;28;20047;-57
2024/01/04 10:36:42;;;;;;;12.10;3.08;;;;;;;-146.25;100.00;70816.00;5079644;28;20119;-57
2024/01/04 10:39:08;;;;;;;8.38;2.05;;;;;;;-146.25;100.00;70816.00;5079905;28;20644;-58
2024/01/04 10:41:33;;;;;;;7.25;1.88;;;;;;;-146.25;100.00;70816.00;5085198;28;20074;-58
2024/01/04 10:44:06;;;;;;;11.35;2.38;;;;;;;-146.25;100.00;70816.00;5082538;28;20035;-59
2024/01/04 10:46:34;;;;;;;4.40;1.73;;;;;;;-146.25;100.00;70816.00;5085481;28;20028;-58
2024/01/04 10:49:00;;;;;;;5.30;1.63;;;;;;;-146.25;100.00;70816.00;5074640;28;20526;-59
2024/01/04 10:51:29;;;;;;;7.90;2.08;;;;;;;-146.25;100.00;70816.00;5081193;28;20475;-58
2024/01/04 10:53:59;;;;;;;8.00;2.50;;;;;;;-146.25;100.00;70816.00;5074965;28;20040;-59